sensor_id;sensor_type;location;lat;lon;timestamp;P1;durP1;ratioP1;P2;durP2;ratioP2
10731;SDS011;74907;42.812;23.216;2024-01-16T00:01:26;14.63;;;13.10;;
10731;SDS011;74907;42.812;23.216;2024-01-16T00:03:52;17.53;;;14.33;;
10731;SDS011;74907;42.812;23.216;2024-01-16T00:06:19;19.57;;;13.70;;
10731;SDS011;74907;42.812;23.216;2024-01-16T00:08:46;16.20;;;13.90;;
10731;SDS011;74907;42.812;23.216;2024-01-16T00:11:13;20.17;;;14.03;;
10731;SDS011;74907;42.812;23.216;2024-01-16T00:13:40;15.60;;;13.20;;
10731;SDS011;74907;42.812;23.216;2024-01-16T00:16:06;14.20;;;11.60;;
10731;SDS011;74907;42.812;23.216;2024-01-16T00:18:35;17.10;;;13.13;;
10731;SDS011;74907;42.812;23.216;2024-01-16T00:21:02;15.43;;;11.30;;
10731;SDS011;74907;42.812;23.216;2024-01-16T00:23:29;14.43;;;10.87;;
10731;SDS011;74907;42.812;23.216;2024-01-16T00:25:57;14.70;;;10.63;;
10731;SDS011;74907;42.812;23.216;2024-01-16T00:28:24;15.07;;;10.70;;
10731;SDS011;74907;42.812;23.216;2024-01-16T00:30:51;11.57;;;10.37;;
10731;SDS011;74907;42.812;23.216;2024-01-16T00:33:17;15.77;;;12.10;;
10731;SDS011;74907;42.812;23.216;2024-01-16T00:35:46;14.43;;;11.73;;
10731;SDS011;74907;42.812;23.216;2024-01-16T00:38:12;16.17;;;12.00;;
10731;SDS011;74907;42.812;23.216;2024-01-16T00:40:39;15.70;;;11.83;;
10731;SDS011;74907;42.812;23.216;2024-01-16T00:43:06;13.30;;;10.53;;
10731;SDS011;74907;42.812;23.216;2024-01-16T00:45:33;13.97;;;10.50;;
10731;SDS011;74907;42.812;23.216;2024-01-16T00:48:01;10.33;;;9.30;;
10731;SDS011;74907;42.812;23.216;2024-01-16T00:50:29;12.13;;;7.50;;
10731;SDS011;74907;42.812;23.216;2024-01-16T00:52:58;9.17;;;8.13;;
10731;SDS011;74907;42.812;23.216;2024-01-16T00:55:24;8.40;;;7.50;;
10731;SDS011;74907;42.812;23.216;2024-01-16T00:57:51;9.30;;;7.43;;
10731;SDS011;74907;42.812;23.216;2024-01-16T01:00:19;9.50;;;7.87;;
10731;SDS011;74907;42.812;23.216;2024-01-16T01:02:45;8.50;;;7.23;;
10731;SDS011;74907;42.812;23.216;2024-01-16T01:05:12;10.63;;;7.03;;
10731;SDS011;74907;42.812;23.216;2024-01-16T01:07:39;6.20;;;5.60;;
10731;SDS011;74907;42.812;23.216;2024-01-16T01:10:07;4.43;;;4.10;;
10731;SDS011;74907;42.812;23.216;2024-01-16T01:12:35;4.30;;;4.00;;
10731;SDS011;74907;42.812;23.216;2024-01-16T01:15:02;5.00;;;4.37;;
10731;SDS011;74907;42.812;23.216;2024-01-16T01:17:29;5.47;;;4.27;;
10731;SDS011;74907;42.812;23.216;2024-01-16T01:19:56;5.37;;;4.50;;
10731;SDS011;74907;42.812;23.216;2024-01-16T01:22:22;5.53;;;5.03;;
10731;SDS011;74907;42.812;23.216;2024-01-16T01:24:50;5.03;;;4.50;;
10731;SDS011;74907;42.812;23.216;2024-01-16T01:27:18;3.73;;;3.47;;
10731;SDS011;74907;42.812;23.216;2024-01-16T01:29:45;3.77;;;3.47;;
10731;SDS011;74907;42.812;23.216;2024-01-16T01:32:11;3.53;;;3.33;;
10731;SDS011;74907;42.812;23.216;2024-01-16T01:34:40;2.93;;;2.73;;
10731;SDS011;74907;42.812;23.216;2024-01-16T01:37:07;2.87;;;2.73;;
10731;SDS011;74907;42.812;23.216;2024-01-16T01:39:34;3.50;;;3.30;;
10731;SDS011;74907;42.812;23.216;2024-01-16T01:42:01;3.03;;;2.90;;
10731;SDS011;74907;42.812;23.216;2024-01-16T01:44:30;2.73;;;2.53;;
10731;SDS011;74907;42.812;23.216;2024-01-16T01:46:56;2.80;;;2.60;;
10731;SDS011;74907;42.812;23.216;2024-01-16T01:49:24;3.07;;;2.50;;
10731;SDS011;74907;42.812;23.216;2024-01-16T01:51:52;2.83;;;2.63;;
10731;SDS011;74907;42.812;23.216;2024-01-16T01:54:20;2.60;;;2.40;;
10731;SDS011;74907;42.812;23.216;2024-01-16T01:56:48;2.53;;;2.33;;
10731;SDS011;74907;42.812;23.216;2024-01-16T01:59:16;2.50;;;2.40;;
10731;SDS011;74907;42.812;23.216;2024-01-16T02:01:45;2.43;;;2.23;;
10731;SDS011;74907;42.812;23.216;2024-01-16T02:04:13;2.70;;;2.60;;
10731;SDS011;74907;42.812;23.216;2024-01-16T02:06:41;2.87;;;2.67;;
10731;SDS011;74907;42.812;23.216;2024-01-16T02:09:11;2.53;;;2.43;;
10731;SDS011;74907;42.812;23.216;2024-01-16T02:11:38;2.43;;;2.33;;
10731;SDS011;74907;42.812;23.216;2024-01-16T02:14:05;2.83;;;2.63;;
10731;SDS011;74907;42.812;23.216;2024-01-16T02:16:35;3.73;;;3.10;;
10731;SDS011;74907;42.812;23.216;2024-01-16T02:19:05;2.70;;;2.50;;
10731;SDS011;74907;42.812;23.216;2024-01-16T02:21:35;2.17;;;2.07;;
10731;SDS011;74907;42.812;23.216;2024-01-16T02:24:06;2.17;;;2.07;;
10731;SDS011;74907;42.812;23.216;2024-01-16T02:26:34;1.80;;;1.70;;
10731;SDS011;74907;42.812;23.216;2024-01-16T02:29:02;2.23;;;2.07;;
10731;SDS011;74907;42.812;23.216;2024-01-16T02:31:29;2.17;;;2.07;;
10731;SDS011;74907;42.812;23.216;2024-01-16T02:33:56;2.37;;;2.27;;
10731;SDS011;74907;42.812;23.216;2024-01-16T02:36:24;2.10;;;2.00;;
10731;SDS011;74907;42.812;23.216;2024-01-16T02:38:51;2.10;;;2.00;;
10731;SDS011;74907;42.812;23.216;2024-01-16T02:41:19;2.27;;;2.07;;
10731;SDS011;74907;42.812;23.216;2024-01-16T02:43:49;2.40;;;2.30;;
10731;SDS011;74907;42.812;23.216;2024-01-16T02:46:16;2.73;;;2.53;;
10731;SDS011;74907;42.812;23.216;2024-01-16T02:48:43;2.53;;;2.33;;
10731;SDS011;74907;42.812;23.216;2024-01-16T02:51:11;2.03;;;1.93;;
10731;SDS011;74907;42.812;23.216;2024-01-16T02:53:39;2.77;;;2.57;;
10731;SDS011;74907;42.812;23.216;2024-01-16T02:56:05;2.00;;;1.90;;
10731;SDS011;74907;42.812;23.216;2024-01-16T02:58:35;1.77;;;1.67;;
10731;SDS011;74907;42.812;23.216;2024-01-16T03:01:01;2.00;;;1.90;;
10731;SDS011;74907;42.812;23.216;2024-01-16T03:03:28;2.23;;;2.13;;
10731;SDS011;74907;42.812;23.216;2024-01-16T03:05:58;2.60;;;2.47;;
10731;SDS011;74907;42.812;23.216;2024-01-16T03:08:25;2.73;;;2.63;;
10731;SDS011;74907;42.812;23.216;2024-01-16T03:10:52;2.93;;;2.73;;
10731;SDS011;74907;42.812;23.216;2024-01-16T03:13:18;2.90;;;2.70;;
10731;SDS011;74907;42.812;23.216;2024-01-16T03:15:46;3.20;;;3.00;;
10731;SDS011;74907;42.812;23.216;2024-01-16T03:18:13;3.80;;;3.50;;
10731;SDS011;74907;42.812;23.216;2024-01-16T03:20:40;3.93;;;3.73;;
10731;SDS011;74907;42.812;23.216;2024-01-16T03:23:07;5.07;;;4.67;;
10731;SDS011;74907;42.812;23.216;2024-01-16T03:25:34;3.67;;;3.47;;
10731;SDS011;74907;42.812;23.216;2024-01-16T03:28:04;4.00;;;3.70;;
10731;SDS011;74907;42.812;23.216;2024-01-16T03:30:33;3.77;;;3.53;;
10731;SDS011;74907;42.812;23.216;2024-01-16T03:33:02;3.23;;;3.03;;
10731;SDS011;74907;42.812;23.216;2024-01-16T03:35:30;3.00;;;2.90;;
10731;SDS011;74907;42.812;23.216;2024-01-16T03:37:56;2.60;;;2.50;;
10731;SDS011;74907;42.812;23.216;2024-01-16T03:40:23;2.57;;;2.47;;
10731;SDS011;74907;42.812;23.216;2024-01-16T03:42:50;2.60;;;2.50;;
10731;SDS011;74907;42.812;23.216;2024-01-16T03:45:17;2.70;;;2.60;;
10731;SDS011;74907;42.812;23.216;2024-01-16T03:47:44;2.00;;;1.90;;
10731;SDS011;74907;42.812;23.216;2024-01-16T03:50:12;2.13;;;2.03;;
10731;SDS011;74907;42.812;23.216;2024-01-16T03:52:40;1.97;;;1.87;;
10731;SDS011;74907;42.812;23.216;2024-01-16T03:55:07;1.97;;;1.87;;
10731;SDS011;74907;42.812;23.216;2024-01-16T03:57:34;2.10;;;2.00;;
10731;SDS011;74907;42.812;23.216;2024-01-16T04:00:01;2.20;;;2.10;;
10731;SDS011;74907;42.812;23.216;2024-01-16T04:02:30;1.60;;;1.60;;
10731;SDS011;74907;42.812;23.216;2024-01-16T04:04:57;1.50;;;1.50;;
10731;SDS011;74907;42.812;23.216;2024-01-16T04:07:25;2.37;;;1.70;;
10731;SDS011;74907;42.812;23.216;2024-01-16T04:09:52;1.63;;;1.57;;
10731;SDS011;74907;42.812;23.216;2024-01-16T04:12:19;1.20;;;1.20;;
10731;SDS011;74907;42.812;23.216;2024-01-16T04:14:45;1.43;;;1.40;;
10731;SDS011;74907;42.812;23.216;2024-01-16T04:17:12;1.47;;;1.47;;
10731;SDS011;74907;42.812;23.216;2024-01-16T04:19:39;1.43;;;1.33;;
10731;SDS011;74907;42.812;23.216;2024-01-16T04:22:06;1.30;;;1.30;;
10731;SDS011;74907;42.812;23.216;2024-01-16T04:24:35;1.50;;;1.50;;
10731;SDS011;74907;42.812;23.216;2024-01-16T04:27:02;1.40;;;1.30;;
10731;SDS011;74907;42.812;23.216;2024-01-16T04:29:29;1.50;;;1.50;;
10731;SDS011;74907;42.812;23.216;2024-01-16T04:31:56;1.60;;;1.60;;
10731;SDS011;74907;42.812;23.216;2024-01-16T04:34:23;1.33;;;1.33;;
10731;SDS011;74907;42.812;23.216;2024-01-16T04:36:50;1.40;;;1.40;;
10731;SDS011;74907;42.812;23.216;2024-01-16T04:39:17;1.23;;;1.23;;
10731;SDS011;74907;42.812;23.216;2024-01-16T04:41:45;1.53;;;1.50;;
10731;SDS011;74907;42.812;23.216;2024-01-16T04:44:12;1.40;;;1.40;;
10731;SDS011;74907;42.812;23.216;2024-01-16T04:46:38;1.40;;;1.40;;
10731;SDS011;74907;42.812;23.216;2024-01-16T04:49:05;1.57;;;1.47;;
10731;SDS011;74907;42.812;23.216;2024-01-16T04:51:32;1.50;;;1.50;;
10731;SDS011;74907;42.812;23.216;2024-01-16T04:53:59;1.67;;;1.67;;
10731;SDS011;74907;42.812;23.216;2024-01-16T04:56:26;1.50;;;1.50;;
10731;SDS011;74907;42.812;23.216;2024-01-16T04:58:54;1.70;;;1.60;;
10731;SDS011;74907;42.812;23.216;2024-01-16T05:01:20;1.80;;;1.80;;
10731;SDS011;74907;42.812;23.216;2024-01-16T05:03:47;1.53;;;1.53;;
10731;SDS011;74907;42.812;23.216;2024-01-16T05:06:14;1.50;;;1.50;;
10731;SDS011;74907;42.812;23.216;2024-01-16T05:08:41;1.70;;;1.60;;
10731;SDS011;74907;42.812;23.216;2024-01-16T05:11:08;1.70;;;1.70;;
10731;SDS011;74907;42.812;23.216;2024-01-16T05:13:35;1.40;;;1.30;;
10731;SDS011;74907;42.812;23.216;2024-01-16T05:16:03;1.67;;;1.60;;
10731;SDS011;74907;42.812;23.216;2024-01-16T05:18:30;1.70;;;1.60;;
10731;SDS011;74907;42.812;23.216;2024-01-16T05:20:58;1.67;;;1.57;;
10731;SDS011;74907;42.812;23.216;2024-01-16T05:23:25;1.50;;;1.50;;
10731;SDS011;74907;42.812;23.216;2024-01-16T05:25:52;1.23;;;1.23;;
10731;SDS011;74907;42.812;23.216;2024-01-16T05:28:19;1.20;;;1.20;;
10731;SDS011;74907;42.812;23.216;2024-01-16T05:30:46;1.53;;;1.50;;
10731;SDS011;74907;42.812;23.216;2024-01-16T05:33:14;1.30;;;1.30;;
10731;SDS011;74907;42.812;23.216;2024-01-16T05:35:41;1.50;;;1.50;;
10731;SDS011;74907;42.812;23.216;2024-01-16T05:38:07;1.87;;;1.77;;
10731;SDS011;74907;42.812;23.216;2024-01-16T05:40:37;1.37;;;1.37;;
10731;SDS011;74907;42.812;23.216;2024-01-16T05:43:04;1.17;;;1.17;;
10731;SDS011;74907;42.812;23.216;2024-01-16T05:45:31;1.40;;;1.40;;
10731;SDS011;74907;42.812;23.216;2024-01-16T05:47:57;1.40;;;1.40;;
10731;SDS011;74907;42.812;23.216;2024-01-16T05:50:26;1.60;;;1.50;;
10731;SDS011;74907;42.812;23.216;2024-01-16T05:52:53;1.73;;;1.63;;
10731;SDS011;74907;42.812;23.216;2024-01-16T05:55:19;1.80;;;1.70;;
10731;SDS011;74907;42.812;23.216;2024-01-16T05:57:49;1.43;;;1.43;;
10731;SDS011;74907;42.812;23.216;2024-01-16T06:00:16;1.50;;;1.40;;
10731;SDS011;74907;42.812;23.216;2024-01-16T06:02:44;1.30;;;1.30;;
10731;SDS011;74907;42.812;23.216;2024-01-16T06:05:11;1.60;;;1.60;;
10731;SDS011;74907;42.812;23.216;2024-01-16T06:07:39;1.40;;;1.40;;
10731;SDS011;74907;42.812;23.216;2024-01-16T06:10:06;1.30;;;1.30;;
10731;SDS011;74907;42.812;23.216;2024-01-16T06:12:34;1.17;;;1.17;;
10731;SDS011;74907;42.812;23.216;2024-01-16T06:15:01;1.97;;;1.87;;
10731;SDS011;74907;42.812;23.216;2024-01-16T06:17:28;1.70;;;1.70;;
10731;SDS011;74907;42.812;23.216;2024-01-16T06:19:55;2.30;;;2.20;;
10731;SDS011;74907;42.812;23.216;2024-01-16T06:22:25;4.97;;;4.40;;
10731;SDS011;74907;42.812;23.216;2024-01-16T06:24:53;2.73;;;2.63;;
10731;SDS011;74907;42.812;23.216;2024-01-16T06:27:20;2.00;;;1.90;;
10731;SDS011;74907;42.812;23.216;2024-01-16T06:29:47;1.83;;;1.73;;
10731;SDS011;74907;42.812;23.216;2024-01-16T06:32:16;3.17;;;2.87;;
10731;SDS011;74907;42.812;23.216;2024-01-16T06:34:42;2.97;;;2.67;;
10731;SDS011;74907;42.812;23.216;2024-01-16T06:37:09;1.90;;;1.80;;
10731;SDS011;74907;42.812;23.216;2024-01-16T06:39:36;1.43;;;1.43;;
10731;SDS011;74907;42.812;23.216;2024-01-16T06:42:15;1.80;;;1.70;;
10731;SDS011;74907;42.812;23.216;2024-01-16T06:44:44;2.40;;;2.20;;
10731;SDS011;74907;42.812;23.216;2024-01-16T06:47:11;1.80;;;1.70;;
10731;SDS011;74907;42.812;23.216;2024-01-16T06:49:38;1.90;;;1.80;;
10731;SDS011;74907;42.812;23.216;2024-01-16T06:52:06;2.67;;;2.00;;
10731;SDS011;74907;42.812;23.216;2024-01-16T06:54:33;2.03;;;1.93;;
10731;SDS011;74907;42.812;23.216;2024-01-16T06:57:00;1.93;;;1.83;;
10731;SDS011;74907;42.812;23.216;2024-01-16T06:59:29;2.20;;;2.10;;
10731;SDS011;74907;42.812;23.216;2024-01-16T07:01:56;2.10;;;2.00;;
10731;SDS011;74907;42.812;23.216;2024-01-16T07:04:22;2.27;;;2.17;;
10731;SDS011;74907;42.812;23.216;2024-01-16T07:06:49;2.03;;;1.93;;
10731;SDS011;74907;42.812;23.216;2024-01-16T07:09:16;1.70;;;1.60;;
10731;SDS011;74907;42.812;23.216;2024-01-16T07:11:48;1.60;;;1.50;;
10731;SDS011;74907;42.812;23.216;2024-01-16T07:14:15;2.30;;;2.13;;
10731;SDS011;74907;42.812;23.216;2024-01-16T07:16:43;2.33;;;2.23;;
10731;SDS011;74907;42.812;23.216;2024-01-16T07:19:10;2.60;;;2.50;;
10731;SDS011;74907;42.812;23.216;2024-01-16T07:21:37;3.00;;;2.80;;
10731;SDS011;74907;42.812;23.216;2024-01-16T07:24:04;3.23;;;3.03;;
10731;SDS011;74907;42.812;23.216;2024-01-16T07:26:31;3.60;;;3.30;;
10731;SDS011;74907;42.812;23.216;2024-01-16T07:28:57;3.40;;;3.20;;
10731;SDS011;74907;42.812;23.216;2024-01-16T07:31:25;4.27;;;3.83;;
10731;SDS011;74907;42.812;23.216;2024-01-16T07:33:53;3.60;;;3.40;;
10731;SDS011;74907;42.812;23.216;2024-01-16T07:36:20;4.40;;;4.00;;
10731;SDS011;74907;42.812;23.216;2024-01-16T07:38:47;5.30;;;4.93;;
10731;SDS011;74907;42.812;23.216;2024-01-16T07:41:14;3.77;;;3.47;;
10731;SDS011;74907;42.812;23.216;2024-01-16T07:43:40;2.40;;;2.30;;
10731;SDS011;74907;42.812;23.216;2024-01-16T07:46:07;3.43;;;3.20;;
10731;SDS011;74907;42.812;23.216;2024-01-16T07:48:34;3.30;;;3.10;;
10731;SDS011;74907;42.812;23.216;2024-01-16T07:51:02;2.37;;;2.17;;
10731;SDS011;74907;42.812;23.216;2024-01-16T07:53:29;2.40;;;2.27;;
10731;SDS011;74907;42.812;23.216;2024-01-16T07:55:59;2.90;;;2.70;;
10731;SDS011;74907;42.812;23.216;2024-01-16T07:58:25;1.70;;;1.60;;
10731;SDS011;74907;42.812;23.216;2024-01-16T08:00:53;2.90;;;2.70;;
10731;SDS011;74907;42.812;23.216;2024-01-16T08:03:20;2.60;;;2.47;;
10731;SDS011;74907;42.812;23.216;2024-01-16T08:05:47;3.27;;;3.07;;
10731;SDS011;74907;42.812;23.216;2024-01-16T08:08:15;3.07;;;2.40;;
10731;SDS011;74907;42.812;23.216;2024-01-16T08:10:41;2.80;;;2.60;;
10731;SDS011;74907;42.812;23.216;2024-01-16T08:13:11;4.13;;;3.33;;
10731;SDS011;74907;42.812;23.216;2024-01-16T08:15:38;2.83;;;2.63;;
10731;SDS011;74907;42.812;23.216;2024-01-16T08:18:05;3.70;;;3.40;;
10731;SDS011;74907;42.812;23.216;2024-01-16T08:20:32;3.17;;;2.97;;
10731;SDS011;74907;42.812;23.216;2024-01-16T08:22:58;2.03;;;1.93;;
10731;SDS011;74907;42.812;23.216;2024-01-16T08:25:27;2.20;;;2.10;;
10731;SDS011;74907;42.812;23.216;2024-01-16T08:27:53;2.17;;;2.07;;
10731;SDS011;74907;42.812;23.216;2024-01-16T08:30:20;2.00;;;1.90;;
10731;SDS011;74907;42.812;23.216;2024-01-16T08:32:47;1.63;;;1.57;;
10731;SDS011;74907;42.812;23.216;2024-01-16T08:35:13;2.77;;;2.57;;
10731;SDS011;74907;42.812;23.216;2024-01-16T08:37:40;2.10;;;2.00;;
10731;SDS011;74907;42.812;23.216;2024-01-16T08:40:07;2.00;;;1.90;;
10731;SDS011;74907;42.812;23.216;2024-01-16T08:42:38;1.93;;;1.83;;
10731;SDS011;74907;42.812;23.216;2024-01-16T08:45:05;1.90;;;1.80;;
10731;SDS011;74907;42.812;23.216;2024-01-16T08:47:32;1.90;;;1.80;;
10731;SDS011;74907;42.812;23.216;2024-01-16T08:49:59;2.03;;;1.93;;
10731;SDS011;74907;42.812;23.216;2024-01-16T08:52:27;2.00;;;1.90;;
10731;SDS011;74907;42.812;23.216;2024-01-16T08:54:54;2.10;;;2.00;;
10731;SDS011;74907;42.812;23.216;2024-01-16T08:57:20;1.83;;;1.73;;
10731;SDS011;74907;42.812;23.216;2024-01-16T08:59:50;2.70;;;1.93;;
10731;SDS011;74907;42.812;23.216;2024-01-16T09:02:17;2.07;;;1.97;;
10731;SDS011;74907;42.812;23.216;2024-01-16T09:04:44;2.53;;;2.40;;
10731;SDS011;74907;42.812;23.216;2024-01-16T09:07:12;2.30;;;2.17;;
10731;SDS011;74907;42.812;23.216;2024-01-16T09:09:40;4.47;;;2.53;;
10731;SDS011;74907;42.812;23.216;2024-01-16T09:12:07;2.80;;;2.60;;
10731;SDS011;74907;42.812;23.216;2024-01-16T09:14:34;2.60;;;2.40;;
10731;SDS011;74907;42.812;23.216;2024-01-16T09:17:03;2.50;;;2.33;;
10731;SDS011;74907;42.812;23.216;2024-01-16T09:19:29;1.70;;;1.60;;
10731;SDS011;74907;42.812;23.216;2024-01-16T09:21:56;2.43;;;2.00;;
10731;SDS011;74907;42.812;23.216;2024-01-16T09:24:23;1.83;;;1.73;;
10731;SDS011;74907;42.812;23.216;2024-01-16T09:26:50;2.10;;;2.00;;
10731;SDS011;74907;42.812;23.216;2024-01-16T09:29:16;3.97;;;1.90;;
10731;SDS011;74907;42.812;23.216;2024-01-16T09:31:43;3.83;;;2.23;;
10731;SDS011;74907;42.812;23.216;2024-01-16T09:34:11;5.33;;;2.37;;
10731;SDS011;74907;42.812;23.216;2024-01-16T09:36:39;2.73;;;2.07;;
10731;SDS011;74907;42.812;23.216;2024-01-16T09:39:06;4.17;;;2.23;;
10731;SDS011;74907;42.812;23.216;2024-01-16T09:41:34;2.00;;;1.90;;
10731;SDS011;74907;42.812;23.216;2024-01-16T09:44:01;1.90;;;1.80;;
10731;SDS011;74907;42.812;23.216;2024-01-16T09:46:28;2.03;;;1.87;;
10731;SDS011;74907;42.812;23.216;2024-01-16T09:48:57;4.07;;;1.90;;
10731;SDS011;74907;42.812;23.216;2024-01-16T09:51:28;1.90;;;1.80;;
10731;SDS011;74907;42.812;23.216;2024-01-16T09:53:58;2.87;;;2.77;;
10731;SDS011;74907;42.812;23.216;2024-01-16T09:56:27;3.67;;;3.37;;
10731;SDS011;74907;42.812;23.216;2024-01-16T09:58:57;3.30;;;3.10;;
10731;SDS011;74907;42.812;23.216;2024-01-16T10:01:29;3.23;;;3.03;;
10731;SDS011;74907;42.812;23.216;2024-01-16T10:03:59;4.27;;;2.77;;
10731;SDS011;74907;42.812;23.216;2024-01-16T10:06:28;5.07;;;2.00;;
10731;SDS011;74907;42.812;23.216;2024-01-16T10:08:57;2.43;;;2.33;;
10731;SDS011;74907;42.812;23.216;2024-01-16T10:11:24;4.07;;;2.10;;
10731;SDS011;74907;42.812;23.216;2024-01-16T10:13:51;3.40;;;3.10;;
10731;SDS011;74907;42.812;23.216;2024-01-16T10:16:18;2.23;;;2.13;;
10731;SDS011;74907;42.812;23.216;2024-01-16T10:18:46;2.80;;;1.90;;
10731;SDS011;74907;42.812;23.216;2024-01-16T10:21:19;2.47;;;1.87;;
10731;SDS011;74907;42.812;23.216;2024-01-16T10:23:49;2.83;;;2.10;;
10731;SDS011;74907;42.812;23.216;2024-01-16T10:26:16;2.53;;;2.00;;
10731;SDS011;74907;42.812;23.216;2024-01-16T10:28:47;2.20;;;1.90;;
10731;SDS011;74907;42.812;23.216;2024-01-16T10:31:15;1.87;;;1.77;;
10731;SDS011;74907;42.812;23.216;2024-01-16T10:33:41;2.00;;;1.90;;
10731;SDS011;74907;42.812;23.216;2024-01-16T10:36:09;2.57;;;2.47;;
10731;SDS011;74907;42.812;23.216;2024-01-16T10:38:37;2.50;;;2.30;;
10731;SDS011;74907;42.812;23.216;2024-01-16T10:41:08;2.33;;;2.20;;
10731;SDS011;74907;42.812;23.216;2024-01-16T10:43:35;2.40;;;2.30;;
10731;SDS011;74907;42.812;23.216;2024-01-16T10:46:12;2.30;;;2.20;;
10731;SDS011;74907;42.812;23.216;2024-01-16T10:48:40;1.90;;;1.80;;
10731;SDS011;74907;42.812;23.216;2024-01-16T10:51:08;1.37;;;1.37;;
10731;SDS011;74907;42.812;23.216;2024-01-16T10:53:37;1.90;;;1.80;;
10731;SDS011;74907;42.812;23.216;2024-01-16T10:56:11;3.20;;;3.00;;
10731;SDS011;74907;42.812;23.216;2024-01-16T10:58:38;2.53;;;2.40;;
10731;SDS011;74907;42.812;23.216;2024-01-16T11:01:08;4.00;;;2.30;;
10731;SDS011;74907;42.812;23.216;2024-01-16T11:03:38;1.80;;;1.70;;
10731;SDS011;74907;42.812;23.216;2024-01-16T11:06:08;2.27;;;2.17;;
10731;SDS011;74907;42.812;23.216;2024-01-16T11:08:36;2.00;;;1.90;;
10731;SDS011;74907;42.812;23.216;2024-01-16T11:11:04;3.77;;;3.47;;
10731;SDS011;74907;42.812;23.216;2024-01-16T11:13:33;8.77;;;4.67;;
10731;SDS011;74907;42.812;23.216;2024-01-16T11:16:02;3.00;;;2.90;;
10731;SDS011;74907;42.812;23.216;2024-01-16T11:18:30;2.00;;;1.90;;
10731;SDS011;74907;42.812;23.216;2024-01-16T11:20:58;2.43;;;2.23;;
10731;SDS011;74907;42.812;23.216;2024-01-16T11:23:26;2.37;;;2.17;;
10731;SDS011;74907;42.812;23.216;2024-01-16T11:25:53;2.13;;;2.03;;
10731;SDS011;74907;42.812;23.216;2024-01-16T11:28:20;2.60;;;2.50;;
10731;SDS011;74907;42.812;23.216;2024-01-16T11:30:56;2.90;;;2.70;;
10731;SDS011;74907;42.812;23.216;2024-01-16T11:39:08;2.73;;;2.53;;
10731;SDS011;74907;42.812;23.216;2024-01-16T11:44:42;2.77;;;1.80;;
10731;SDS011;74907;42.812;23.216;2024-01-16T11:47:16;2.50;;;2.40;;
10731;SDS011;74907;42.812;23.216;2024-01-16T11:49:44;1.73;;;1.63;;
10731;SDS011;74907;42.812;23.216;2024-01-16T11:52:11;1.70;;;1.60;;
10731;SDS011;74907;42.812;23.216;2024-01-16T11:54:38;3.03;;;2.33;;
10731;SDS011;74907;42.812;23.216;2024-01-16T11:57:09;1.70;;;1.60;;
10731;SDS011;74907;42.812;23.216;2024-01-16T11:59:57;1.77;;;1.67;;
10731;SDS011;74907;42.812;23.216;2024-01-16T12:02:29;1.83;;;1.70;;
10731;SDS011;74907;42.812;23.216;2024-01-16T12:05:03;1.80;;;1.70;;
10731;SDS011;74907;42.812;23.216;2024-01-16T12:07:42;2.07;;;1.97;;
10731;SDS011;74907;42.812;23.216;2024-01-16T12:10:09;1.70;;;1.60;;
10731;SDS011;74907;42.812;23.216;2024-01-16T12:12:35;1.40;;;1.40;;
10731;SDS011;74907;42.812;23.216;2024-01-16T12:15:02;1.83;;;1.73;;
10731;SDS011;74907;42.812;23.216;2024-01-16T12:17:33;1.10;;;1.10;;
10731;SDS011;74907;42.812;23.216;2024-01-16T12:20:00;3.00;;;2.80;;
10731;SDS011;74907;42.812;23.216;2024-01-16T12:22:27;3.73;;;2.10;;
10731;SDS011;74907;42.812;23.216;2024-01-16T12:24:55;1.40;;;1.40;;
10731;SDS011;74907;42.812;23.216;2024-01-16T12:27:23;2.00;;;1.67;;
10731;SDS011;74907;42.812;23.216;2024-01-16T12:30:04;3.80;;;2.80;;
10731;SDS011;74907;42.812;23.216;2024-01-16T12:32:33;2.50;;;2.37;;
10731;SDS011;74907;42.812;23.216;2024-01-16T12:35:00;2.93;;;2.33;;
10731;SDS011;74907;42.812;23.216;2024-01-16T12:37:27;1.60;;;1.50;;
10731;SDS011;74907;42.812;23.216;2024-01-16T12:39:54;1.83;;;1.73;;
10731;SDS011;74907;42.812;23.216;2024-01-16T12:42:22;1.93;;;1.83;;
10731;SDS011;74907;42.812;23.216;2024-01-16T12:44:51;2.77;;;2.30;;
10731;SDS011;74907;42.812;23.216;2024-01-16T12:47:18;4.53;;;2.63;;
10731;SDS011;74907;42.812;23.216;2024-01-16T12:49:47;2.97;;;2.73;;
10731;SDS011;74907;42.812;23.216;2024-01-16T12:52:15;4.33;;;3.80;;
10731;SDS011;74907;42.812;23.216;2024-01-16T12:54:44;4.73;;;4.00;;
10731;SDS011;74907;42.812;23.216;2024-01-16T12:57:16;2.37;;;2.27;;
10731;SDS011;74907;42.812;23.216;2024-01-16T12:59:44;2.00;;;1.90;;
10731;SDS011;74907;42.812;23.216;2024-01-16T13:02:19;2.90;;;2.70;;
10731;SDS011;74907;42.812;23.216;2024-01-16T13:04:48;3.90;;;3.50;;
10731;SDS011;74907;42.812;23.216;2024-01-16T13:07:24;4.50;;;4.10;;
10731;SDS011;74907;42.812;23.216;2024-01-16T13:09:51;4.57;;;4.17;;
10731;SDS011;74907;42.812;23.216;2024-01-16T13:12:33;2.63;;;2.53;;
10731;SDS011;74907;42.812;23.216;2024-01-16T13:15:00;2.57;;;2.40;;
10731;SDS011;74907;42.812;23.216;2024-01-16T13:17:31;2.50;;;2.30;;
10731;SDS011;74907;42.812;23.216;2024-01-16T13:19:59;2.00;;;1.90;;
10731;SDS011;74907;42.812;23.216;2024-01-16T13:22:26;2.43;;;2.23;;
10731;SDS011;74907;42.812;23.216;2024-01-16T13:24:53;2.63;;;2.43;;
10731;SDS011;74907;42.812;23.216;2024-01-16T13:27:20;2.90;;;2.70;;
10731;SDS011;74907;42.812;23.216;2024-01-16T13:29:48;6.07;;;3.03;;
10731;SDS011;74907;42.812;23.216;2024-01-16T13:32:15;2.60;;;2.40;;
10731;SDS011;74907;42.812;23.216;2024-01-16T13:34:42;2.60;;;2.50;;
10731;SDS011;74907;42.812;23.216;2024-01-16T13:37:15;3.73;;;3.53;;
10731;SDS011;74907;42.812;23.216;2024-01-16T13:39:47;2.70;;;2.40;;
10731;SDS011;74907;42.812;23.216;2024-01-16T13:42:13;3.70;;;3.40;;
10731;SDS011;74907;42.812;23.216;2024-01-16T13:44:43;3.20;;;2.37;;
10731;SDS011;74907;42.812;23.216;2024-01-16T13:47:11;2.60;;;2.47;;
10731;SDS011;74907;42.812;23.216;2024-01-16T13:49:38;2.70;;;2.00;;
10731;SDS011;74907;42.812;23.216;2024-01-16T13:52:05;2.10;;;2.00;;
10731;SDS011;74907;42.812;23.216;2024-01-16T13:54:35;1.80;;;1.70;;
10731;SDS011;74907;42.812;23.216;2024-01-16T13:57:02;5.10;;;4.70;;
10731;SDS011;74907;42.812;23.216;2024-01-16T13:59:29;20.40;;;13.23;;
10731;SDS011;74907;42.812;23.216;2024-01-16T14:01:56;24.63;;;16.73;;
10731;SDS011;74907;42.812;23.216;2024-01-16T14:04:23;3.80;;;3.50;;
10731;SDS011;74907;42.812;23.216;2024-01-16T14:06:49;3.27;;;2.97;;
10731;SDS011;74907;42.812;23.216;2024-01-16T14:09:16;5.80;;;5.23;;
10731;SDS011;74907;42.812;23.216;2024-01-16T14:11:45;8.00;;;5.13;;
10731;SDS011;74907;42.812;23.216;2024-01-16T14:14:12;7.27;;;6.67;;
10731;SDS011;74907;42.812;23.216;2024-01-16T14:16:39;3.27;;;3.07;;
10731;SDS011;74907;42.812;23.216;2024-01-16T14:19:06;2.60;;;2.50;;
10731;SDS011;74907;42.812;23.216;2024-01-16T14:21:35;3.43;;;2.57;;
10731;SDS011;74907;42.812;23.216;2024-01-16T14:24:03;2.93;;;2.73;;
10731;SDS011;74907;42.812;23.216;2024-01-16T14:26:30;2.60;;;2.40;;
10731;SDS011;74907;42.812;23.216;2024-01-16T14:28:58;2.90;;;2.30;;
10731;SDS011;74907;42.812;23.216;2024-01-16T14:31:26;3.33;;;2.07;;
10731;SDS011;74907;42.812;23.216;2024-01-16T14:33:53;3.00;;;2.80;;
10731;SDS011;74907;42.812;23.216;2024-01-16T14:36:20;3.50;;;3.30;;
10731;SDS011;74907;42.812;23.216;2024-01-16T14:38:46;5.17;;;4.77;;
10731;SDS011;74907;42.812;23.216;2024-01-16T14:41:16;3.57;;;3.37;;
10731;SDS011;74907;42.812;23.216;2024-01-16T14:43:43;6.97;;;6.03;;
10731;SDS011;74907;42.812;23.216;2024-01-16T14:46:12;7.40;;;4.60;;